Date,TemperatureHighF,TemperatureAvgF,TemperatureLowF,DewpointHighF,DewpointAvgF,DewpointLowF,HumidityHigh,HumidityAvg,HumidityLow,PressureMaxIn,PressureMinIn,WindSpeedMaxMPH,WindSpeedAvgMPH,GustSpeedMaxMPH,PrecipitationSumIn
2013-1-1,30,17,3,28,10,-1,93,72,56,29.90,29.57,26,4,26,0.00
2013-1-2,13,6,-8,10,1,-11,90,79,69,30.20,29.80,14,2,14,0.00
2013-1-3,14,-2,-12,8,-8,-16,87,78,61,30.21,29.83,13,2,13,0.00
2013-1-4,35,24,11,27,19,4,87,81,71,29.87,29.65,17,5,17,0.00
2013-1-5,34,22,8,28,15,5,90,73,56,30.17,29.68,20,4,23,0.00
2013-1-6,34,25,12,30,21,8,93,86,76,30.09,29.78,12,3,12,0.00
2013-1-7,23,15,8,19,11,5,95,84,69,30.31,29.93,13,2,14,0.00
2013-1-8,37,29,23,26,22,18,92,76,59,30.28,30.09,14,4,21,0.00
2013-1-9,43,31,14,32,24,13,95,77,56,30.27,29.77,23,5,23,0.09
2013-1-10,39,35,24,33,27,22,93,72,60,30.48,29.94,20,5,20,0.03
2013-1-11,39,32,21,36,26,19,95,80,54,30.45,29.96,20,6,20,0.02
2013-1-12,48,42,39,43,40,36,95,90,81,30.01,29.91,20,7,20,0.01
2013-1-13,49,45,40,46,42,38,96,91,83,29.97,29.72,27,8,27,0.00
2013-1-14,50,43,34,46,36,26,94,77,56,30.20,29.65,25,4,25,0.00
2013-1-15,34,29,24,27,20,17,85,69,56,30.26,30.15,12,2,12,0.00
2013-1-16,31,28,26,29,25,21,94,87,74,30.15,29.67,8,2,9,0.00
2013-1-17,32,20,5,28,10,-6,94,68,46,30.13,29.67,22,5,22,0.00
2013-1-18,20,6,-3,10,-4,-9,82,65,38,30.29,30.10,14,2,14,0.00
2013-1-19,41,30,18,26,19,6,90,64,53,30.17,29.60,20,9,20,0.00
2013-1-20,43,33,13,33,21,4,86,62,45,29.90,29.26,32,12,32,0.02
2013-1-21,16,10,5,5,3,-1,86,72,59,29.99,29.76,12,2,12,0.00
2013-1-22,10,6,-1,4,-1,-14,88,75,43,30.03,29.75,15,2,15,0.00
2013-1-23,1,-6,-10,-10,-15,-19,78,64,52,30.16,30.01,12,2,12,0.00
2013-1-24,9,-1,-12,-8,-12,-17,83,60,42,30.31,30.10,20,2,20,0.00
2013-1-25,12,5,-6,3,-5,-11,81,63,50,30.33,30.05,12,2,12,0.00
2013-1-26,13,8,-2,5,0,-5,87,73,51,30.24,30.04,18,2,18,0.00
2013-1-27,17,9,3,5,0,-4,83,66,43,30.45,30.24,12,2,12,0.00
2013-1-28,22,15,2,21,10,-1,93,83,49,30.40,29.91,10,1,10,0.00
2013-1-29,40,28,21,37,24,19,93,88,80,30.10,29.83,20,2,20,0.16
2013-1-30,57,48,39,54,46,36,94,90,85,29.83,29.13,29,15,29,0.09
2013-1-31,56,39,22,54,29,8,96,69,44,29.43,28.70,33,14,33,0.23
2013-2-1,22,14,11,11,5,0,83,66,52,30.05,29.43,20,4,20,0.00
2013-2-2,22,15,6,14,7,-1,89,70,54,30.11,29.93,16,3,16,0.00
2013-2-3,24,14,5,16,10,3,92,84,64,29.96,29.67,7,1,7,0.00
2013-2-4,22,15,7,13,5,-8,91,66,40,29.87,29.66,20,5,20,0.00
2013-2-5,21,10,-2,8,-3,-8,81,57,31,29.97,29.81,7,1,7,0.00
2013-2-6,26,19,9,23,7,-8,90,60,37,30.33,29.78,20,4,20,0.00
2013-2-7,11,6,0,-2,-5,-9,69,58,48,30.53,30.32,8,2,8,0.00
2013-2-8,23,15,7,22,11,-2,93,84,65,30.36,29.90,2,0,2,0.00
2013-2-9,19,10,-3,15,2,-6,88,72,49,30.30,29.90,28,7,28,0.00
2013-2-10,27,9,-12,5,-2,-16,86,63,34,30.42,30.16,8,1,8,0.00
2013-2-11,40,33,20,36,22,4,95,67,31,30.16,29.50,29,7,29,0.06
2013-2-12,38,36,33,30,28,25,78,74,69,29.74,29.49,15,5,16,0.05
2013-2-13,37,32,30,26,25,23,83,76,59,29.75,29.66,7,1,7,0.00
2013-2-14,36,32,27,28,23,19,92,72,52,29.85,29.67,7,1,9,0.00
2013-2-15,44,37,31,32,26,17,88,66,49,29.88,29.73,15,6,15,0.00
2013-2-16,31,24,16,19,12,5,81,60,46,29.95,29.86,18,4,18,0.00
2013-2-17,16,12,9,6,3,1,84,68,56,29.86,29.64,21,8,21,0.00
2013-2-18,25,14,5,1,-2,-8,73,52,24,30.08,29.82,15,4,15,0.00
2013-2-19,45,29,10,32,15,0,95,59,31,30.06,29.52,17,4,17,0.01
2013-2-20,32,27,19,30,19,8,95,71,56,29.72,29.52,20,7,20,0.00
2013-2-21,19,15,10,16,9,1,89,75,64,30.32,29.72,18,3,18,0.00
2013-2-22,33,24,9,24,19,7,92,81,68,30.37,30.14,6,1,6,0.02
2013-2-23,37,34,32,32,28,22,93,79,62,30.14,29.79,14,4,14,0.04
2013-2-24,35,33,31,33,31,29,96,93,86,29.88,29.72,9,1,9,0.11
2013-2-25,36,32,30,33,31,29,97,95,88,30.16,29.88,4,0,4,0.08
2013-2-26,40,34,31,33,30,27,97,85,65,30.23,30.00,12,2,12,0.04
2013-2-27,42,35,32,35,30,26,96,83,66,30.07,29.55,14,2,14,0.14
2013-2-28,45,37,31,36,34,30,97,88,66,29.58,29.48,8,2,8,0.07
2013-3-1,40,36,30,35,32,28,94,85,77,29.69,29.50,12,3,12,0.00
2013-3-2,32,28,23,29,25,21,95,88,75,29.72,29.67,13,3,14,0.00
2013-3-3,31,25,22,25,22,20,93,87,75,29.72,29.61,10,1,10,0.00
2013-3-4,27,24,23,22,20,17,93,84,74,29.83,29.63,12,3,12,0.00
2013-3-5,36,28,24,27,24,22,94,85,69,30.05,29.83,10,2,10,0.08
2013-3-6,45,34,20,32,24,18,96,71,47,30.11,30.02,20,5,20,0.07
2013-3-7,37,33,30,25,23,20,82,65,57,30.13,30.09,13,4,13,0.00
2013-3-8,38,31,24,26,24,21,92,77,61,30.26,30.09,17,5,18,0.00
2013-3-9,45,31,19,27,23,18,95,74,45,30.30,30.24,12,2,12,0.00
2013-3-10,55,42,24,27,24,20,93,55,28,30.25,29.97,24,7,26,0.00
2013-3-11,51,47,42,33,29,26,64,50,42,30.05,29.81,23,10,23,0.00
2013-3-12,54,47,36,50,42,31,96,84,49,29.84,29.63,25,7,25,1.14
2013-3-13,43,35,28,35,31,26,97,87,53,29.74,29.65,14,1,14,0.01
2013-3-14,32,24,17,27,14,4,85,65,51,29.85,29.64,20,6,20,0.00
2013-3-15,33,24,12,28,15,5,89,68,42,29.85,29.50,16,4,16,0.00
2013-3-16,27,22,16,20,13,9,83,69,53,29.86,29.66,16,4,17,0.00
2013-3-17,25,17,10,13,6,0,91,66,34,30.28,29.85,15,2,18,0.00
2013-3-18,34,21,6,17,8,2,90,60,27,30.37,30.01,9,1,9,0.00
2013-3-19,33,30,27,31,27,14,95,88,53,30.01,29.64,14,4,14,0.01
2013-3-20,32,29,24,29,23,19,95,78,63,29.64,29.57,10,2,10,0.00
2013-3-21,39,29,21,24,18,13,90,64,37,29.64,29.55,13,3,13,0.15
2013-3-22,36,27,17,25,20,15,94,75,55,29.67,29.57,12,2,12,0.01
2013-3-23,37,32,27,24,22,20,82,65,51,29.73,29.59,12,3,18,0.01
2013-3-24,40,35,25,26,23,21,88,62,53,29.80,29.71,14,1,15,0.00
2013-3-25,46,35,21,30,26,19,94,70,53,29.74,29.50,13,2,13,0.00
2013-3-26,44,35,31,29,26,23,83,71,45,29.72,29.55,11,2,13,0.00
2013-3-27,49,37,28,33,28,24,88,71,50,29.86,29.69,17,2,17,0.00
2013-3-28,51,40,34,37,34,32,96,80,55,29.97,29.85,6,1,12,0.02
2013-3-29,48,42,36,38,34,30,95,75,54,29.99,29.93,5,1,12,0.04
2013-3-30,50,38,26,32,22,13,95,58,24,30.04,29.97,6,1,13,0.00
2013-3-31,55,41,24,40,25,19,88,55,30,30.00,29.62,26,4,27,0.02
2013-4-1,50,41,28,41,30,14,90,66,34,29.71,29.42,22,9,22,0.07
2013-4-2,33,28,23,21,15,10,85,59,43,29.82,29.71,22,7,22,0.00
2013-4-3,40,32,26,18,12,8,58,44,27,30.11,29.81,21,7,21,0.00
2013-4-4,54,39,21,23,18,11,76,45,25,30.18,29.78,18,4,18,0.00
2013-4-5,47,39,30,32,24,12,76,54,40,29.92,29.72,21,5,21,0.00
2013-4-6,39,30,23,16,9,4,56,43,29,30.22,29.92,22,6,22,0.00
2013-4-7,59,46,29,38,23,11,63,39,29,30.16,29.67,31,9,31,0.00
2013-4-8,54,44,39,38,32,30,74,63,45,30.07,29.73,13,3,14,0.00
2013-4-9,49,44,39,46,40,33,95,86,70,29.94,29.66,12,3,15,0.36
2013-4-10,43,43,42,42,41,40,96,94,91,29.88,29.85,4,0,4,0.17
2013-4-12,35,35,34,33,32,30,93,89,85,29.77,29.70,17,4,17,0.20
2013-4-13,50,39,34,40,35,32,94,87,59,29.81,29.68,12,2,12,0.14
2013-4-14,45,39,29,38,35,28,94,86,67,30.14,29.79,9,2,9,0.05
2013-4-15,61,45,26,36,31,24,96,64,36,30.27,30.08,16,4,16,0.00
2013-4-16,58,54,50,53,42,32,95,65,47,30.11,29.81,26,10,32,0.10
2013-4-17,54,47,36,42,33,28,85,60,38,30.26,30.00,16,4,17,0.00
2013-4-18,66,53,37,44,36,28,79,53,38,30.25,29.78,33,6,33,0.01
2013-4-19,73,63,45,59,53,40,92,72,55,29.79,29.34,33,12,33,0.66
2013-4-20,68,45,34,57,30,20,87,56,40,30.19,29.58,22,9,22,0.01
2013-4-21,45,35,27,25,18,15,77,52,31,30.61,30.19,14,5,14,0.00
2013-4-22,58,42,22,26,21,13,92,49,19,30.63,30.42,16,4,16,0.00
2013-4-23,58,46,34,38,29,17,78,53,35,30.44,30.04,20,7,20,0.00
2013-4-24,74,57,42,52,42,36,87,60,28,30.03,29.50,21,7,21,0.03
2013-4-25,60,47,40,53,32,24,90,56,30,30.21,29.52,22,6,22,0.08
2013-4-26,54,44,34,39,33,26,90,66,48,30.36,30.19,14,3,14,0.00
2013-4-27,62,46,30,39,31,21,96,63,24,30.36,30.20,8,2,8,0.00
2013-4-28,74,54,32,40,34,28,93,54,19,30.23,30.00,13,2,13,0.00
2013-4-29,66,60,55,46,40,35,64,49,38,30.09,30.02,14,7,14,0.00
2013-4-30,74,61,52,50,45,41,82,57,38,30.17,30.08,14,5,14,0.00
2013-5-1,78,63,45,48,43,34,93,54,26,30.33,30.15,12,2,12,0.00
2013-5-2,82,68,50,49,43,36,81,44,26,30.33,30.19,15,4,15,0.00
2013-5-3,71,60,49,43,38,29,74,44,30,30.39,30.22,16,5,16,0.00
2013-5-4,76,61,44,48,44,40,92,58,30,30.25,30.08,12,2,12,0.00
2013-5-5,80,64,47,46,40,35,90,46,22,30.14,29.99,16,3,16,0.00
2013-5-6,80,67,52,48,35,17,58,33,14,30.10,29.92,12,4,12,0.00
2013-5-7,84,69,56,54,45,26,76,47,23,30.03,29.91,13,3,13,0.00
2013-5-8,80,68,53,60,54,46,89,65,40,30.04,29.90,14,4,14,0.04
2013-5-9,74,65,58,61,56,48,97,75,43,29.90,29.73,12,3,12,0.15
2013-5-10,71,61,54,58,56,52,95,85,58,29.89,29.68,9,1,9,0.02
2013-5-11,69,62,47,63,56,45,93,83,65,29.68,29.49,20,6,20,0.24
2013-5-12,58,50,43,51,39,26,97,68,33,29.66,29.53,18,4,18,0.00
2013-5-13,51,44,39,39,31,26,92,61,41,29.96,29.64,18,7,18,0.00
2013-5-14,57,45,31,39,32,25,96,65,30,30.02,29.90,14,2,14,0.00
2013-5-15,66,48,30,50,39,29,96,74,31,29.93,29.46,29,5,29,0.13
2013-5-16,74,60,48,51,44,33,94,60,24,29.82,29.50,24,4,24,0.00
2013-5-17,66,52,40,44,42,38,95,69,40,30.15,29.82,14,2,16,0.00
2013-5-18,73,60,39,48,40,32,96,53,23,30.21,30.12,12,2,12,0.00
2013-5-19,69,58,48,55,50,40,94,75,54,30.17,29.98,16,5,16,0.12
2013-5-20,73,62,57,63,58,54,96,88,65,29.99,29.86,16,3,16,0.05
2013-5-21,68,61,57,62,58,56,97,91,73,29.90,29.69,20,3,20,0.77
2013-5-22,78,67,57,70,65,56,97,91,75,29.76,29.60,10,2,11,0.87
2013-5-23,80,67,62,70,65,61,97,93,64,29.66,29.56,16,3,17,0.89
2013-5-24,64,49,44,62,48,43,97,96,94,29.96,29.61,20,5,20,1.46
2013-5-25,45,43,41,44,42,40,97,96,95,29.95,29.83,25,9,25,0.88
2013-5-26,52,44,39,46,42,38,98,94,79,29.99,29.79,22,6,22,0.44
2013-5-27,67,53,39,45,41,36,99,69,34,30.08,29.96,12,3,12,0.00
2013-5-28,75,59,37,48,43,37,98,62,30,30.13,29.98,12,2,12,0.00
2013-5-29,71,63,55,65,58,48,96,85,60,29.98,29.79,14,5,14,0.34
2013-5-30,86,72,59,69,64,58,98,78,48,29.97,29.85,9,2,9,0.00
2013-5-31,92,76,61,73,66,60,98,73,47,29.95,29.75,10,2,10,0.00
2013-6-1,89,77,63,72,67,61,97,73,46,29.82,29.66,16,4,16,0.48
2013-6-2,86,72,63,74,68,61,98,87,56,29.72,29.52,21,4,21,0.62
2013-6-3,68,63,55,61,52,43,93,69,47,29.77,29.64,14,4,14,0.00
2013-6-4,64,56,50,49,44,42,92,67,51,30.01,29.77,14,5,14,0.00
2013-6-5,69,57,42,51,46,40,97,69,39,30.12,30.01,9,2,10,0.00
2013-6-6,61,55,51,54,50,45,97,84,58,30.08,29.97,9,1,9,0.21
2013-6-7,58,54,52,54,52,49,98,93,83,29.98,29.78,12,2,12,0.84
2013-6-8,61,57,53,58,55,53,98,95,86,29.93,29.69,8,2,8,0.05
2013-6-9,77,64,55,62,57,52,98,79,46,30.09,29.92,12,2,12,0.00
2013-6-10,77,63,50,62,54,48,98,77,37,30.10,29.85,9,2,9,0.09
2013-6-11,63,58,56,60,57,55,98,95,86,29.85,29.49,8,1,8,1.65
2013-6-12,70,59,54,59,55,53,98,88,64,29.76,29.53,15,4,15,0.17
2013-6-13,71,63,49,60,56,48,98,79,47,29.73,29.58,9,1,9,0.00
2013-6-14,73,65,52,60,56,51,98,76,56,29.68,29.60,14,2,14,0.00
2013-6-15,75,65,46,52,48,42,97,57,35,29.87,29.77,12,2,12,0.00
2013-6-16,66,61,56,61,54,47,96,78,53,29.80,29.58,10,3,10,0.39
2013-6-17,74,64,55,63,58,51,98,82,64,29.86,29.65,13,3,13,0.02
2013-6-18,71,59,47,54,50,43,97,74,38,29.91,29.83,9,2,9,0.00
2013-6-19,68,58,44,50,45,41,94,66,41,30.08,29.89,12,3,12,0.00
2013-6-20,77,61,43,53,48,43,98,68,33,30.17,30.08,7,1,7,0.00
2013-6-21,83,67,49,61,54,48,97,67,36,30.15,30.08,10,2,10,0.00
2013-6-22,77,66,59,67,62,56,97,88,67,30.09,29.97,7,1,7,0.34
2013-6-23,82,73,66,76,70,65,98,90,73,29.99,29.83,9,2,9,0.60
2013-6-24,89,75,67,76,70,66,97,86,59,29.87,29.75,21,3,21,1.04
2013-6-25,86,71,67,75,68,63,98,91,64,29.80,29.64,16,3,16,0.76
2013-6-26,79,70,66,72,68,65,99,93,75,29.70,29.63,16,2,16,1.30
2013-6-27,83,74,67,73,69,66,97,86,62,29.68,29.60,9,2,9,0.12
2013-6-28,68,66,64,67,65,62,97,96,96,29.60,29.59,9,2,9,0.13
2013-6-29,78,68,58,68,64,57,98,90,71,29.57,29.41,7,1,9,0.26
2013-6-30,81,68,61,69,64,61,99,88,57,29.83,29.54,7,1,7,0.04
2013-7-1,76,68,61,69,64,60,98,89,70,30.00,29.82,13,2,13,0.44
2013-7-2,74,65,59,69,64,59,98,95,82,30.03,29.97,6,1,6,0.43
2013-7-3,84,74,68,76,71,67,99,92,73,30.05,29.99,8,1,8,0.01
2013-7-4,88,76,67,78,72,66,99,91,67,30.06,29.95,18,2,18,1.20
2013-7-5,88,77,68,78,72,68,99,86,63,30.02,29.91,10,2,10,0.00
2013-7-6,88,77,70,74,70,64,98,81,47,29.96,29.87,7,2,7,0.01
2013-7-7,81,72,64,72,68,62,98,88,70,29.91,29.83,9,2,9,0.06
2013-7-8,80,72,67,72,68,65,99,91,71,29.94,29.82,10,2,10,0.09
2013-7-9,86,75,64,74,69,64,99,83,58,29.97,29.85,10,1,10,0.00
2013-7-10,84,77,72,76,72,68,91,83,73,29.84,29.58,21,7,21,0.01
2013-7-11,78,73,64,72,66,59,98,79,56,29.92,29.60,13,2,13,0.30
2013-7-12,78,66,56,63,59,54,98,80,55,30.06,29.81,10,2,10,0.00
2013-7-13,83,76,57,70,66,56,98,73,61,30.18,30.12,12,3,12,0.00
2013-7-14,87,77,72,75,71,68,95,82,61,30.20,30.10,6,1,6,0.00
2013-7-15,90,79,68,75,70,64,99,77,45,30.11,30.03,12,2,12,0.00
2013-7-16,88,78,66,74,69,66,98,78,54,30.12,30.05,10,2,10,0.00
2013-7-17,93,80,68,78,72,67,96,78,53,30.07,29.83,12,2,12,0.01
2013-7-18,90,79,69,77,72,68,98,81,59,29.92,29.79,7,1,7,0.00
2013-7-19,95,81,69,78,72,68,97,78,45,29.80,29.51,29,5,29,0.25
2013-7-20,83,74,67,74,68,59,97,83,47,29.73,29.52,12,2,12,0.55
2013-7-21,74,65,56,65,55,52,96,73,52,29.93,29.63,8,2,8,0.00
2013-7-22,82,67,51,68,60,50,98,79,57,29.93,29.72,9,1,9,0.14
2013-7-23,80,71,68,71,68,66,98,92,69,29.72,29.44,8,1,8,0.40
2013-7-24,67,62,52,66,55,49,97,78,65,29.96,29.48,16,3,20,0.85
2013-7-25,71,60,46,57,51,45,98,72,55,30.06,29.85,12,3,12,0.00
2013-7-26,75,61,50,64,56,50,99,86,65,30.02,29.92,12,1,12,0.00
2013-7-27,83,68,52,64,59,51,99,76,40,29.95,29.83,7,2,7,0.00
2013-7-28,79,72,62,70,65,60,93,80,65,29.85,29.78,14,3,14,0.00
2013-7-29,78,69,63,67,64,61,98,83,59,29.98,29.83,13,2,13,0.07
2013-7-30,77,67,56,63,60,56,98,80,54,30.03,29.95,8,1,8,0.03
2013-7-31,82,69,54,65,59,51,98,74,36,30.04,29.89,10,2,10,0.00
2013-8-1,81,70,65,68,63,59,96,81,58,29.90,29.69,22,4,22,0.77
2013-8-2,80,69,60,67,62,55,98,80,46,29.72,29.66,12,3,12,0.02
2013-8-3,75,66,60,63,60,57,97,81,56,29.73,29.63,15,2,15,0.36
2013-8-4,71,64,60,63,58,55,91,80,62,29.85,29.74,13,5,13,0.33
2013-8-5,71,62,53,56,50,38,94,67,38,29.94,29.85,16,4,16,0.00
2013-8-6,78,63,49,58,53,49,99,74,38,30.02,29.94,9,2,9,0.00
2013-8-7,81,68,54,65,60,53,98,76,50,30.01,29.85,20,5,20,0.10
2013-8-8,84,74,70,73,68,61,91,80,63,29.88,29.81,17,5,17,0.00
2013-8-9,77,72,68,73,70,67,98,93,82,29.83,29.65,8,2,8,0.28
2013-8-10,72,67,54,69,56,51,97,71,50,29.93,29.68,17,4,17,0.00
2013-8-11,79,65,51,61,56,50,98,75,44,29.98,29.87,8,1,8,0.00
2013-8-12,80,67,56,64,58,54,96,75,49,29.91,29.78,8,1,8,0.00
2013-8-13,74,65,58,67,62,57,98,91,72,29.78,29.57,12,2,12,0.16
2013-8-14,67,61,54,63,55,52,98,81,64,29.86,29.59,13,3,13,0.24
2013-8-15,75,62,49,58,53,48,98,75,43,29.98,29.86,10,2,10,0.00
2013-8-16,78,64,51,62,56,49,97,78,51,30.12,29.97,8,2,8,0.23
2013-8-17,75,63,55,63,57,52,99,82,49,30.22,30.11,8,1,8,0.01
2013-8-18,79,64,51,64,58,50,99,81,49,30.18,29.97,8,1,8,0.00
2013-8-19,82,69,56,66,61,56,99,80,52,29.97,29.86,8,2,8,0.00
2013-8-20,85,71,58,68,63,58,98,79,48,29.98,29.89,9,1,9,0.00
2013-8-21,87,73,60,70,65,60,99,78,47,30.02,29.86,9,2,9,0.00
2013-8-22,85,72,65,71,66,62,98,83,57,29.89,29.71,20,2,20,0.40
2013-8-23,71,63,53,64,56,52,98,81,54,30.09,29.78,13,3,13,0.00
2013-8-24,75,58,47,60,52,44,99,84,35,30.25,30.09,6,1,6,0.01
2013-8-25,78,67,49,62,58,48,98,74,46,30.28,29.92,2,1,9,0.27
2013-8-26,74,68,63,68,66,61,97,91,82,29.92,29.77,3,1,10,0.27
2013-8-27,69,69,68,68,68,67,99,98,97,29.79,29.77,1,0,1,0.01
2013-8-28,84,75,64,74,69,64,99,84,62,29.84,29.76,9,2,9,0.00
2013-8-29,78,70,64,70,66,63,98,89,65,29.95,29.84,8,2,8,0.00
2013-8-30,85,73,62,74,68,61,99,85,62,29.90,29.65,12,2,12,0.00
2013-8-31,77,72,67,71,69,66,97,91,77,29.70,29.64,12,2,12,0.04
2013-9-1,84,73,66,70,68,65,99,83,57,29.77,29.69,7,1,7,0.08
2013-9-2,81,72,64,74,68,62,98,90,72,29.71,29.54,21,2,21,0.74
2013-9-3,76,68,62,65,62,59,98,83,59,29.71,29.59,13,2,13,0.00
2013-9-4,73,65,56,62,59,55,97,82,63,29.83,29.71,16,2,16,0.04
2013-9-5,63,57,44,59,46,38,97,72,41,30.08,29.80,16,4,16,0.00
2013-9-6,70,54,38,48,44,38,98,72,40,30.17,29.95,10,2,10,0.00
2013-9-7,68,61,55,56,51,48,79,70,57,29.96,29.78,14,4,15,0.00
2013-9-8,62,55,43,54,45,41,95,71,49,30.01,29.67,5,3,17,0.38
2013-9-9,69,54,39,52,46,38,98,75,49,30.10,29.94,14,3,14,0.00
2013-9-10,74,66,59,70,62,51,97,88,71,29.95,29.85,12,4,14,0.41
2013-9-11,90,79,70,79,73,68,97,83,60,29.89,29.76,15,4,15,0.44
2013-9-12,75,70,65,73,68,65,98,95,91,29.83,29.52,9,2,9,0.23
2013-9-13,65,58,52,65,57,52,98,96,91,29.78,29.52,12,4,12,0.27
2013-9-14,60,52,44,53,50,44,98,91,72,29.99,29.77,7,2,7,0.05
2013-9-15,67,55,41,56,50,41,99,85,61,30.03,29.91,12,3,12,0.01
2013-9-16,57,49,37,55,45,36,98,87,58,30.25,29.91,14,3,14,0.48
2013-9-17,64,47,34,48,41,33,99,83,46,30.40,30.22,7,1,7,0.00
2013-9-18,71,53,39,54,47,38,99,81,44,30.23,30.02,10,2,10,0.00
2013-9-19,78,58,42,59,51,42,99,81,42,30.06,29.93,8,1,8,0.01
2013-9-20,80,65,49,63,55,48,99,74,41,29.99,29.77,15,4,15,0.00
2013-9-21,75,68,62,63,58,51,96,71,45,29.78,29.47,28,11,28,0.37
2013-9-22,63,60,57,62,58,53,98,95,85,29.56,29.45,12,2,12,0.46
2013-9-23,51,49,44,43,41,39,86,76,70,29.97,29.86,15,4,15,0.00
2013-9-24,61,52,46,48,44,40,96,74,54,29.96,29.82,14,4,14,0.00
2013-9-25,64,51,40,52,47,40,98,85,62,29.94,29.84,12,2,12,0.00
2013-9-26,61,51,37,53,47,37,99,87,69,30.09,29.94,10,1,10,0.00
2013-9-27,66,56,48,55,51,47,97,85,62,30.20,30.08,9,1,9,0.00
2013-9-28,73,56,42,59,50,42,99,85,46,30.28,30.14,6,1,6,0.00
2013-9-29,75,58,44,58,52,44,99,82,53,30.14,29.94,9,2,9,0.01
2013-9-30,74,58,45,58,51,45,99,83,48,29.99,29.87,8,1,8,0.00
2013-10-1,76,58,45,62,54,45,99,86,58,29.91,29.77,6,1,6,0.00
2013-10-2,78,62,50,64,55,49,99,81,42,29.87,29.72,13,2,13,0.01
2013-10-3,71,57,45,54,49,44,99,79,45,30.02,29.87,7,1,7,0.00
2013-10-4,62,54,45,57,50,44,99,88,76,30.02,29.96,5,1,5,0.00
2013-10-5,66,56,49,52,48,44,93,77,48,30.06,29.99,8,2,8,0.00
2013-10-6,59,53,45,54,49,44,95,87,68,30.06,29.87,20,3,20,0.26
2013-10-7,76,62,55,64,57,48,96,84,65,29.87,29.45,16,6,16,0.99
2013-10-8,60,51,39,50,42,37,96,71,44,30.29,29.78,17,3,17,0.00
2013-10-9,66,48,34,46,40,33,99,78,35,30.37,30.24,9,1,9,0.00
2013-10-10,68,50,38,52,45,37,98,84,53,30.24,30.09,4,1,4,0.00
2013-10-11,71,51,38,54,46,38,99,86,43,30.10,30.04,5,1,5,0.01
2013-10-12,74,56,40,58,49,40,99,80,54,30.23,30.08,9,2,9,0.00
2013-10-13,70,58,50,52,49,47,92,74,50,30.29,30.17,16,4,16,0.00
2013-10-14,60,54,48,54,51,47,98,90,69,30.21,30.14,12,3,12,0.14
2013-10-15,65,54,45,58,52,45,99,92,75,30.19,29.98,8,2,8,0.01
2013-10-16,66,61,55,55,54,52,93,78,63,29.98,29.68,23,8,23,0.03
2013-10-17,66,58,52,57,53,50,97,83,59,29.74,29.58,13,2,13,0.22
2013-10-18,61,55,51,55,48,39,98,78,52,29.78,29.51,14,4,14,0.30
2013-10-19,61,54,44,48,44,40,89,71,55,29.80,29.53,17,3,17,0.04
2013-10-20,57,51,41,48,39,33,88,65,41,29.89,29.51,17,5,17,0.01
2013-10-21,62,50,34,46,40,33,98,72,50,29.95,29.74,22,5,22,0.00
2013-10-22,59,51,42,48,40,31,91,66,49,29.74,29.58,20,7,20,0.09
2013-10-23,51,43,36,36,34,30,88,69,49,29.68,29.53,10,2,10,0.00
2013-10-24,45,40,30,35,31,26,88,70,56,29.78,29.57,14,4,14,0.00
2013-10-25,45,40,34,34,30,27,80,68,51,30.03,29.78,12,4,12,0.00
2013-10-26,44,40,31,37,34,27,90,78,68,30.02,29.68,20,5,20,0.06
2013-10-27,47,43,36,39,34,30,88,72,55,29.92,29.64,13,4,13,0.02
2013-10-28,47,39,26,40,30,22,90,71,45,30.31,29.89,20,4,20,0.01
2013-10-29,41,30,22,29,24,20,96,81,54,30.40,30.25,7,1,7,0.00
2013-10-30,46,36,27,36,31,24,94,82,68,30.25,30.09,9,1,9,0.00
2013-10-31,59,48,35,57,45,33,94,91,83,30.13,29.47,21,8,21,0.13
2013-11-1,68,61,55,61,53,43,95,77,43,29.52,29.09,30,12,30,0.15
2013-11-2,56,45,34,47,42,30,96,87,67,29.84,29.49,13,3,13,0.19
2013-11-3,37,31,23,30,22,17,91,70,46,30.42,29.84,20,4,20,0.00
2013-11-4,37,29,21,21,19,16,89,69,44,30.62,30.42,12,2,12,0.00
2013-11-5,50,40,27,36,27,19,77,58,44,30.56,30.30,16,6,16,0.00
2013-11-6,57,52,45,46,42,36,75,68,62,30.30,29.71,25,10,25,0.00
2013-11-7,56,47,35,51,40,26,95,78,62,29.79,29.58,23,7,23,0.29
2013-11-8,39,36,32,30,27,25,85,69,60,30.01,29.74,16,5,16,0.00
2013-11-9,42,37,29,34,26,23,90,65,48,30.10,29.82,14,4,14,0.02
2013-11-10,46,41,36,41,36,31,94,84,75,29.82,29.59,18,6,18,0.13
2013-11-11,42,38,31,36,30,24,92,72,60,30.02,29.73,17,7,17,0.00
2013-11-12,31,27,23,25,19,14,79,71,64,30.19,29.84,17,6,17,0.00
2013-11-13,32,25,20,20,14,12,74,63,47,30.25,30.12,12,4,12,0.00
2013-11-14,45,39,32,32,28,22,75,63,57,29.94,29.90,16,3,16,0.00
2013-11-15,53,41,35,28,24,19,77,50,31,30.07,29.94,12,3,12,0.00
2013-11-16,57,42,30,33,29,27,89,63,36,30.18,30.06,9,2,9,0.00
2013-11-17,57,52,47,51,43,31,91,72,52,30.12,29.51,22,8,22,0.12
2013-11-18,60,51,41,55,42,27,95,70,52,29.55,29.25,25,10,25,0.70
2013-11-19,41,32,28,31,21,18,89,63,56,30.29,29.55,22,9,22,0.00
2013-11-20,34,28,20,22,20,18,93,73,57,30.56,30.30,12,2,13,0.00
2013-11-21,42,31,18,28,18,13,94,63,30,30.55,30.24,16,4,16,0.00
2013-11-22,42,39,36,41,35,28,97,87,64,30.24,29.72,16,1,16,0.12
2013-11-23,41,30,20,37,23,12,93,74,57,29.90,29.67,21,7,21,0.00
2013-11-24,21,17,13,15,8,2,85,66,50,30.19,29.79,31,11,31,0.00
2013-11-25,30,20,8,17,8,2,77,61,42,30.31,30.04,21,6,21,0.00
2013-11-26,34,32,30,31,26,17,96,78,56,30.13,29.87,16,4,16,0.00
2013-11-27,35,33,27,35,32,24,97,96,88,29.87,29.31,12,2,12,1.03
2013-11-28,27,21,12,24,13,8,89,71,52,30.35,29.46,17,5,17,0.00
2013-11-29,24,16,6,14,10,4,91,78,53,30.69,30.34,6,1,6,0.00
2013-11-30,29,18,3,18,10,1,92,73,51,30.71,30.21,25,6,25,0.00
2013-12-1,37,32,28,31,27,16,97,81,58,30.22,29.95,18,3,18,0.03
2013-12-2,38,33,28,36,31,27,97,94,86,29.95,29.80,4,0,4,0.04
2013-12-3,41,33,27,37,32,26,98,94,84,29.93,29.82,8,1,8,0.00
2013-12-4,38,32,26,31,28,24,97,88,71,30.07,29.92,6,0,6,0.00
2013-12-5,54,45,28,51,41,26,95,86,78,30.02,29.68,23,7,23,0.01
2013-12-6,51,38,32,45,32,26,95,79,64,30.07,29.79,12,2,12,0.21
2013-12-7,33,28,24,26,16,12,78,60,46,30.40,30.03,20,5,20,0.00
2013-12-8,27,24,20,17,13,8,79,62,53,30.50,30.36,12,2,12,0.00
2013-12-9,37,30,24,33,24,13,95,81,56,30.37,29.72,18,6,18,0.01
2013-12-10,37,30,21,29,18,8,72,60,55,29.85,29.70,23,6,23,0.00
2013-12-11,29,21,15,17,11,6,87,64,47,30.10,29.85,20,6,20,0.00
2013-12-12,19,14,6,12,4,-1,81,65,51,30.23,29.84,18,5,18,0.00
2013-12-13,20,12,2,14,3,-7,81,66,54,30.38,29.80,17,6,17,0.00
2013-12-14,14,4,-4,10,-4,-9,90,70,52,30.55,30.05,12,1,12,0.00
2013-12-15,22,16,8,20,13,6,93,89,86,30.04,29.47,12,2,12,0.00
2013-12-16,13,6,-4,6,0,-9,93,77,57,30.18,29.61,12,2,12,0.00
2013-12-17,16,4,-13,12,-1,-17,87,80,63,30.19,29.93,10,1,10,0.00
2013-12-18,26,20,10,22,16,8,92,86,79,29.93,29.84,6,1,6,0.00
2013-12-19,36,30,24,29,25,21,93,80,71,29.98,29.80,14,3,14,0.00
2013-12-20,34,26,20,31,24,18,95,92,81,29.98,29.81,9,2,9,0.00
2013-12-21,28,24,20,27,22,19,96,94,93,29.92,29.71,8,2,8,0.00
2013-12-22,31,24,19,30,23,18,97,95,93,29.92,29.65,7,0,7,0.00
2013-12-23,27,24,21,26,23,20,96,95,93,30.12,29.89,0,0,0,0.00
2013-12-24,21,13,5,20,10,0,93,88,80,30.29,30.09,0,0,0,0.00
2013-12-25,16,6,-1,11,2,-5,90,84,77,30.49,30.28,0,0,0,0.00
2013-12-26,26,22,16,24,20,11,96,91,81,30.28,30.00,0,0,0,0.00
2013-12-27,31,26,19,27,23,18,95,91,79,30.13,30.03,0,0,0,0.00
2013-12-28,33,30,20,32,28,18,97,92,89,30.03,29.88,15,2,16,0.00
2013-12-29,37,33,29,34,32,28,97,94,86,29.89,29.49,8,1,8,0.08
2013-12-30,31,14,1,30,10,-4,98,85,74,30.17,29.48,13,4,13,0.00
2013-12-31,15,8,0,13,3,-4,93,83,63,30.15,29.92,9,1,9,0.00
2014-1-1,12,3,-6,6,-2,-12,91,81,71,30.42,30.06,10,2,10,0.00
2014-1-2,-6,-10,-13,-12,-15,-17,83,79,75,30.41,30.00,12,4,12,0.00